sensor_id;sensor_type;location;lat;lon;timestamp;P1;durP1;ratioP1;P2;durP2;ratioP2
17214;SDS011;8723;51.502;6.918;2022-11-20T00:00:19;22.17;;;19.97;;
17214;SDS011;8723;51.502;6.918;2022-11-20T00:02:46;22.17;;;19.88;;
17214;SDS011;8723;51.502;6.918;2022-11-20T00:05:14;21.42;;;19.42;;
17214;SDS011;8723;51.502;6.918;2022-11-20T00:07:42;21.50;;;19.42;;
17214;SDS011;8723;51.502;6.918;2022-11-20T00:10:09;21.70;;;19.70;;
17214;SDS011;8723;51.502;6.918;2022-11-20T00:12:36;22.38;;;20.17;;
17214;SDS011;8723;51.502;6.918;2022-11-20T00:15:03;21.45;;;19.33;;
17214;SDS011;8723;51.502;6.918;2022-11-20T00:17:30;21.63;;;19.48;;
17214;SDS011;8723;51.502;6.918;2022-11-20T00:19:58;22.05;;;19.85;;
17214;SDS011;8723;51.502;6.918;2022-11-20T00:22:26;22.20;;;20.05;;
17214;SDS011;8723;51.502;6.918;2022-11-20T00:24:53;22.55;;;20.35;;
17214;SDS011;8723;51.502;6.918;2022-11-20T00:27:22;23.40;;;21.20;;
17214;SDS011;8723;51.502;6.918;2022-11-20T00:29:49;23.05;;;20.83;;
17214;SDS011;8723;51.502;6.918;2022-11-20T00:32:16;23.48;;;21.17;;
17214;SDS011;8723;51.502;6.918;2022-11-20T00:34:43;23.30;;;21.10;;
17214;SDS011;8723;51.502;6.918;2022-11-20T00:37:10;23.98;;;21.77;;
17214;SDS011;8723;51.502;6.918;2022-11-20T00:39:39;25.67;;;23.25;;
17214;SDS011;8723;51.502;6.918;2022-11-20T00:42:06;24.52;;;22.25;;
17214;SDS011;8723;51.502;6.918;2022-11-20T00:44:33;26.38;;;23.88;;
17214;SDS011;8723;51.502;6.918;2022-11-20T00:47:00;26.58;;;24.08;;
17214;SDS011;8723;51.502;6.918;2022-11-20T00:49:27;25.90;;;23.42;;
17214;SDS011;8723;51.502;6.918;2022-11-20T00:51:54;26.77;;;24.10;;
17214;SDS011;8723;51.502;6.918;2022-11-20T00:54:21;28.30;;;25.40;;
17214;SDS011;8723;51.502;6.918;2022-11-20T00:56:49;29.98;;;26.88;;
17214;SDS011;8723;51.502;6.918;2022-11-20T00:59:17;36.60;;;32.85;;
17214;SDS011;8723;51.502;6.918;2022-11-20T01:01:44;39.28;;;35.25;;
17214;SDS011;8723;51.502;6.918;2022-11-20T01:04:11;33.90;;;30.50;;
17214;SDS011;8723;51.502;6.918;2022-11-20T01:06:39;28.65;;;25.95;;
17214;SDS011;8723;51.502;6.918;2022-11-20T01:09:07;28.80;;;26.07;;
17214;SDS011;8723;51.502;6.918;2022-11-20T01:11:35;26.45;;;23.95;;
17214;SDS011;8723;51.502;6.918;2022-11-20T01:14:05;28.75;;;25.95;;
17214;SDS011;8723;51.502;6.918;2022-11-20T01:16:33;29.00;;;26.20;;
17214;SDS011;8723;51.502;6.918;2022-11-20T01:19:01;29.40;;;26.50;;
17214;SDS011;8723;51.502;6.918;2022-11-20T01:21:30;29.98;;;27.10;;
17214;SDS011;8723;51.502;6.918;2022-11-20T01:23:57;28.88;;;26.05;;
17214;SDS011;8723;51.502;6.918;2022-11-20T01:26:28;27.37;;;24.77;;
17214;SDS011;8723;51.502;6.918;2022-11-20T01:28:56;28.55;;;25.85;;
17214;SDS011;8723;51.502;6.918;2022-11-20T01:31:25;27.55;;;24.95;;
17214;SDS011;8723;51.502;6.918;2022-11-20T01:33:54;26.70;;;24.10;;
17214;SDS011;8723;51.502;6.918;2022-11-20T01:36:21;26.52;;;24.02;;
17214;SDS011;8723;51.502;6.918;2022-11-20T01:38:50;27.15;;;24.38;;
17214;SDS011;8723;51.502;6.918;2022-11-20T01:41:18;25.00;;;22.50;;
17214;SDS011;8723;51.502;6.918;2022-11-20T01:43:59;25.80;;;23.23;;
17214;SDS011;8723;51.502;6.918;2022-11-20T01:46:28;26.13;;;23.63;;
17214;SDS011;8723;51.502;6.918;2022-11-20T01:48:56;26.90;;;24.40;;
17214;SDS011;8723;51.502;6.918;2022-11-20T01:51:26;25.65;;;23.27;;
17214;SDS011;8723;51.502;6.918;2022-11-20T01:53:55;26.33;;;23.73;;
17214;SDS011;8723;51.502;6.918;2022-11-20T01:56:24;25.83;;;23.33;;
17214;SDS011;8723;51.502;6.918;2022-11-20T01:58:52;25.40;;;22.90;;
17214;SDS011;8723;51.502;6.918;2022-11-20T02:01:20;25.70;;;23.23;;
17214;SDS011;8723;51.502;6.918;2022-11-20T02:03:49;25.37;;;22.97;;
17214;SDS011;8723;51.502;6.918;2022-11-20T02:06:19;25.42;;;22.95;;
17214;SDS011;8723;51.502;6.918;2022-11-20T02:08:50;25.58;;;23.08;;
17214;SDS011;8723;51.502;6.918;2022-11-20T02:11:17;25.10;;;22.70;;
17214;SDS011;8723;51.502;6.918;2022-11-20T02:13:44;25.30;;;22.98;;
17214;SDS011;8723;51.502;6.918;2022-11-20T02:16:12;24.60;;;22.20;;
17214;SDS011;8723;51.502;6.918;2022-11-20T02:18:40;24.90;;;22.50;;
17214;SDS011;8723;51.502;6.918;2022-11-20T02:21:12;25.65;;;23.15;;
17214;SDS011;8723;51.502;6.918;2022-11-20T02:23:51;25.00;;;22.60;;
17214;SDS011;8723;51.502;6.918;2022-11-20T02:26:18;24.95;;;22.55;;
17214;SDS011;8723;51.502;6.918;2022-11-20T02:28:47;24.45;;;22.15;;
17214;SDS011;8723;51.502;6.918;2022-11-20T02:31:14;24.10;;;21.70;;
17214;SDS011;8723;51.502;6.918;2022-11-20T02:33:41;24.60;;;22.20;;
17214;SDS011;8723;51.502;6.918;2022-11-20T02:36:09;24.70;;;22.30;;
17214;SDS011;8723;51.502;6.918;2022-11-20T02:38:38;24.90;;;22.50;;
17214;SDS011;8723;51.502;6.918;2022-11-20T02:41:06;25.02;;;22.73;;
17214;SDS011;8723;51.502;6.918;2022-11-20T02:43:34;24.48;;;22.15;;
17214;SDS011;8723;51.502;6.918;2022-11-20T02:46:01;24.83;;;22.42;;
17214;SDS011;8723;51.502;6.918;2022-11-20T02:48:28;23.95;;;21.65;;
17214;SDS011;8723;51.502;6.918;2022-11-20T02:50:55;25.77;;;23.27;;
17214;SDS011;8723;51.502;6.918;2022-11-20T02:53:22;25.98;;;23.48;;
17214;SDS011;8723;51.502;6.918;2022-11-20T02:55:49;24.93;;;22.47;;
17214;SDS011;8723;51.502;6.918;2022-11-20T02:58:18;25.15;;;22.55;;
17214;SDS011;8723;51.502;6.918;2022-11-20T03:00:45;25.00;;;22.60;;
17214;SDS011;8723;51.502;6.918;2022-11-20T03:03:12;25.30;;;22.90;;
17214;SDS011;8723;51.502;6.918;2022-11-20T03:05:39;25.10;;;22.70;;
17214;SDS011;8723;51.502;6.918;2022-11-20T03:08:06;24.80;;;22.40;;
17214;SDS011;8723;51.502;6.918;2022-11-20T03:10:33;25.02;;;22.45;;
17214;SDS011;8723;51.502;6.918;2022-11-20T03:13:00;24.87;;;22.47;;
17214;SDS011;8723;51.502;6.918;2022-11-20T03:15:28;24.85;;;22.45;;
17214;SDS011;8723;51.502;6.918;2022-11-20T03:17:56;25.10;;;22.60;;
17214;SDS011;8723;51.502;6.918;2022-11-20T03:20:23;25.17;;;22.63;;
17214;SDS011;8723;51.502;6.918;2022-11-20T03:22:50;25.30;;;22.90;;
17214;SDS011;8723;51.502;6.918;2022-11-20T03:25:17;24.92;;;22.42;;
17214;SDS011;8723;51.502;6.918;2022-11-20T03:27:44;25.75;;;23.25;;
17214;SDS011;8723;51.502;6.918;2022-11-20T03:30:11;26.00;;;23.33;;
17214;SDS011;8723;51.502;6.918;2022-11-20T03:32:40;25.17;;;22.70;;
17214;SDS011;8723;51.502;6.918;2022-11-20T03:35:07;26.25;;;23.75;;
17214;SDS011;8723;51.502;6.918;2022-11-20T03:37:35;26.83;;;24.23;;
17214;SDS011;8723;51.502;6.918;2022-11-20T03:40:02;26.10;;;23.45;;
17214;SDS011;8723;51.502;6.918;2022-11-20T03:42:29;26.38;;;23.85;;
17214;SDS011;8723;51.502;6.918;2022-11-20T03:45:11;25.63;;;23.13;;
17214;SDS011;8723;51.502;6.918;2022-11-20T03:47:40;26.67;;;24.15;;
17214;SDS011;8723;51.502;6.918;2022-11-20T03:50:07;26.25;;;23.67;;
17214;SDS011;8723;51.502;6.918;2022-11-20T03:52:34;26.40;;;23.90;;
17214;SDS011;8723;51.502;6.918;2022-11-20T03:55:02;26.25;;;23.65;;
17214;SDS011;8723;51.502;6.918;2022-11-20T03:57:29;25.42;;;23.02;;
17214;SDS011;8723;51.502;6.918;2022-11-20T03:59:56;25.10;;;22.70;;
17214;SDS011;8723;51.502;6.918;2022-11-20T04:02:23;25.58;;;22.92;;
17214;SDS011;8723;51.502;6.918;2022-11-20T04:04:51;26.75;;;24.25;;
17214;SDS011;8723;51.502;6.918;2022-11-20T04:07:18;25.57;;;23.10;;
17214;SDS011;8723;51.502;6.918;2022-11-20T04:09:46;26.48;;;23.88;;
17214;SDS011;8723;51.502;6.918;2022-11-20T04:12:13;26.23;;;23.60;;
17214;SDS011;8723;51.502;6.918;2022-11-20T04:14:40;25.73;;;23.25;;
17214;SDS011;8723;51.502;6.918;2022-11-20T04:17:07;25.38;;;22.80;;
17214;SDS011;8723;51.502;6.918;2022-11-20T04:19:34;26.10;;;23.50;;
17214;SDS011;8723;51.502;6.918;2022-11-20T04:22:02;27.42;;;24.73;;
17214;SDS011;8723;51.502;6.918;2022-11-20T04:24:29;24.77;;;22.37;;
17214;SDS011;8723;51.502;6.918;2022-11-20T04:26:57;26.33;;;23.73;;
17214;SDS011;8723;51.502;6.918;2022-11-20T04:29:24;26.00;;;23.50;;
17214;SDS011;8723;51.502;6.918;2022-11-20T04:31:51;25.83;;;23.33;;
17214;SDS011;8723;51.502;6.918;2022-11-20T04:34:18;25.42;;;22.90;;
17214;SDS011;8723;51.502;6.918;2022-11-20T04:36:45;25.23;;;22.77;;
17214;SDS011;8723;51.502;6.918;2022-11-20T04:39:14;25.85;;;23.33;;
17214;SDS011;8723;51.502;6.918;2022-11-20T04:41:42;26.57;;;23.87;;
17214;SDS011;8723;51.502;6.918;2022-11-20T04:44:09;26.45;;;23.85;;
17214;SDS011;8723;51.502;6.918;2022-11-20T04:46:37;26.77;;;24.17;;
17214;SDS011;8723;51.502;6.918;2022-11-20T04:49:05;26.63;;;23.92;;
17214;SDS011;8723;51.502;6.918;2022-11-20T04:51:32;25.77;;;23.17;;
17214;SDS011;8723;51.502;6.918;2022-11-20T04:53:59;26.90;;;24.20;;
17214;SDS011;8723;51.502;6.918;2022-11-20T04:56:28;25.70;;;23.20;;
17214;SDS011;8723;51.502;6.918;2022-11-20T04:58:55;26.08;;;23.48;;
17214;SDS011;8723;51.502;6.918;2022-11-20T05:01:23;26.80;;;24.20;;
17214;SDS011;8723;51.502;6.918;2022-11-20T05:03:50;26.45;;;23.95;;
17214;SDS011;8723;51.502;6.918;2022-11-20T05:06:18;26.90;;;24.23;;
17214;SDS011;8723;51.502;6.918;2022-11-20T05:08:45;26.45;;;23.85;;
17214;SDS011;8723;51.502;6.918;2022-11-20T05:11:14;26.45;;;23.95;;
17214;SDS011;8723;51.502;6.918;2022-11-20T05:13:43;25.63;;;23.15;;
17214;SDS011;8723;51.502;6.918;2022-11-20T05:16:10;25.98;;;23.48;;
17214;SDS011;8723;51.502;6.918;2022-11-20T05:18:38;25.98;;;23.35;;
17214;SDS011;8723;51.502;6.918;2022-11-20T05:21:05;26.45;;;23.88;;
17214;SDS011;8723;51.502;6.918;2022-11-20T05:23:33;26.80;;;24.20;;
17214;SDS011;8723;51.502;6.918;2022-11-20T05:26:01;26.20;;;23.65;;
17214;SDS011;8723;51.502;6.918;2022-11-20T05:28:29;27.67;;;24.88;;
17214;SDS011;8723;51.502;6.918;2022-11-20T05:31:04;26.45;;;23.90;;
17214;SDS011;8723;51.502;6.918;2022-11-20T05:33:32;26.15;;;23.65;;
17214;SDS011;8723;51.502;6.918;2022-11-20T05:35:59;26.53;;;23.83;;
17214;SDS011;8723;51.502;6.918;2022-11-20T05:38:26;26.02;;;23.52;;
17214;SDS011;8723;51.502;6.918;2022-11-20T05:40:53;26.33;;;23.80;;
17214;SDS011;8723;51.502;6.918;2022-11-20T05:43:20;26.58;;;23.77;;
17214;SDS011;8723;51.502;6.918;2022-11-20T05:45:53;27.93;;;25.17;;
17214;SDS011;8723;51.502;6.918;2022-11-20T05:48:22;26.65;;;24.05;;
17214;SDS011;8723;51.502;6.918;2022-11-20T05:50:49;26.25;;;23.73;;
17214;SDS011;8723;51.502;6.918;2022-11-20T05:53:16;27.27;;;24.50;;
17214;SDS011;8723;51.502;6.918;2022-11-20T05:55:43;27.13;;;24.50;;
17214;SDS011;8723;51.502;6.918;2022-11-20T05:58:10;26.67;;;23.98;;
17214;SDS011;8723;51.502;6.918;2022-11-20T06:00:37;26.70;;;24.13;;
17214;SDS011;8723;51.502;6.918;2022-11-20T06:03:04;26.85;;;24.25;;
17214;SDS011;8723;51.502;6.918;2022-11-20T06:05:34;28.15;;;25.48;;
17214;SDS011;8723;51.502;6.918;2022-11-20T06:08:01;27.50;;;24.70;;
17214;SDS011;8723;51.502;6.918;2022-11-20T06:10:28;26.58;;;23.98;;
17214;SDS011;8723;51.502;6.918;2022-11-20T06:12:56;26.52;;;23.85;;
17214;SDS011;8723;51.502;6.918;2022-11-20T06:15:24;26.52;;;23.92;;
17214;SDS011;8723;51.502;6.918;2022-11-20T06:17:51;27.00;;;24.37;;
17214;SDS011;8723;51.502;6.918;2022-11-20T06:20:19;25.60;;;23.00;;
17214;SDS011;8723;51.502;6.918;2022-11-20T06:22:47;26.02;;;23.52;;
17214;SDS011;8723;51.502;6.918;2022-11-20T06:25:14;26.65;;;24.15;;
17214;SDS011;8723;51.502;6.918;2022-11-20T06:27:41;26.17;;;23.67;;
17214;SDS011;8723;51.502;6.918;2022-11-20T06:30:09;25.58;;;23.08;;
17214;SDS011;8723;51.502;6.918;2022-11-20T06:32:36;28.67;;;25.88;;
17214;SDS011;8723;51.502;6.918;2022-11-20T06:35:03;26.60;;;24.02;;
17214;SDS011;8723;51.502;6.918;2022-11-20T06:37:31;27.13;;;24.23;;
17214;SDS011;8723;51.502;6.918;2022-11-20T06:39:59;28.08;;;25.27;;
17214;SDS011;8723;51.502;6.918;2022-11-20T06:42:26;26.13;;;23.70;;
17214;SDS011;8723;51.502;6.918;2022-11-20T06:44:53;26.10;;;23.45;;
17214;SDS011;8723;51.502;6.918;2022-11-20T06:47:20;26.88;;;24.30;;
17214;SDS011;8723;51.502;6.918;2022-11-20T06:49:47;26.00;;;23.50;;
17214;SDS011;8723;51.502;6.918;2022-11-20T06:52:14;25.75;;;23.23;;
17214;SDS011;8723;51.502;6.918;2022-11-20T06:54:42;24.60;;;22.20;;
17214;SDS011;8723;51.502;6.918;2022-11-20T06:57:10;25.77;;;23.23;;
17214;SDS011;8723;51.502;6.918;2022-11-20T06:59:37;25.77;;;23.27;;
17214;SDS011;8723;51.502;6.918;2022-11-20T07:02:04;25.37;;;22.97;;
17214;SDS011;8723;51.502;6.918;2022-11-20T07:04:31;26.42;;;23.73;;
17214;SDS011;8723;51.502;6.918;2022-11-20T07:06:58;28.57;;;25.87;;
17214;SDS011;8723;51.502;6.918;2022-11-20T07:09:25;27.83;;;25.23;;
17214;SDS011;8723;51.502;6.918;2022-11-20T07:11:52;27.33;;;24.63;;
17214;SDS011;8723;51.502;6.918;2022-11-20T07:14:21;26.33;;;23.90;;
17214;SDS011;8723;51.502;6.918;2022-11-20T07:16:48;26.52;;;24.00;;
17214;SDS011;8723;51.502;6.918;2022-11-20T07:19:15;26.53;;;24.00;;
17214;SDS011;8723;51.502;6.918;2022-11-20T07:21:42;27.33;;;24.70;;
17214;SDS011;8723;51.502;6.918;2022-11-20T07:24:09;27.13;;;24.40;;
17214;SDS011;8723;51.502;6.918;2022-11-20T07:26:36;27.58;;;24.90;;
17214;SDS011;8723;51.502;6.918;2022-11-20T07:29:03;29.73;;;26.83;;
17214;SDS011;8723;51.502;6.918;2022-11-20T07:31:32;28.02;;;25.15;;
17214;SDS011;8723;51.502;6.918;2022-11-20T07:33:59;32.13;;;29.10;;
17214;SDS011;8723;51.502;6.918;2022-11-20T07:36:26;34.23;;;31.00;;
17214;SDS011;8723;51.502;6.918;2022-11-20T07:38:53;33.42;;;30.23;;
17214;SDS011;8723;51.502;6.918;2022-11-20T07:41:20;37.45;;;30.10;;
17214;SDS011;8723;51.502;6.918;2022-11-20T07:43:47;32.17;;;28.75;;
17214;SDS011;8723;51.502;6.918;2022-11-20T07:46:14;28.92;;;26.17;;
17214;SDS011;8723;51.502;6.918;2022-11-20T07:48:43;29.25;;;26.35;;
17214;SDS011;8723;51.502;6.918;2022-11-20T07:51:10;31.20;;;28.10;;
17214;SDS011;8723;51.502;6.918;2022-11-20T07:53:38;34.90;;;31.55;;
17214;SDS011;8723;51.502;6.918;2022-11-20T07:56:05;35.05;;;31.65;;
17214;SDS011;8723;51.502;6.918;2022-11-20T07:58:32;34.40;;;31.10;;
17214;SDS011;8723;51.502;6.918;2022-11-20T08:01:02;36.00;;;32.40;;
17214;SDS011;8723;51.502;6.918;2022-11-20T08:03:29;35.35;;;31.95;;
17214;SDS011;8723;51.502;6.918;2022-11-20T08:05:59;32.50;;;29.35;;
17214;SDS011;8723;51.502;6.918;2022-11-20T08:08:26;31.83;;;28.63;;
17214;SDS011;8723;51.502;6.918;2022-11-20T08:10:54;28.95;;;26.05;;
17214;SDS011;8723;51.502;6.918;2022-11-20T08:13:41;31.38;;;28.30;;
17214;SDS011;8723;51.502;6.918;2022-11-20T08:16:25;35.28;;;31.85;;
17214;SDS011;8723;51.502;6.918;2022-11-20T08:18:53;31.17;;;28.08;;
17214;SDS011;8723;51.502;6.918;2022-11-20T08:21:21;27.65;;;25.10;;
17214;SDS011;8723;51.502;6.918;2022-11-20T08:23:48;30.55;;;27.55;;
17214;SDS011;8723;51.502;6.918;2022-11-20T08:26:15;32.97;;;29.67;;
17214;SDS011;8723;51.502;6.918;2022-11-20T08:28:43;32.78;;;29.52;;
17214;SDS011;8723;51.502;6.918;2022-11-20T08:31:10;31.63;;;28.52;;
17214;SDS011;8723;51.502;6.918;2022-11-20T08:33:37;31.88;;;28.67;;
17214;SDS011;8723;51.502;6.918;2022-11-20T08:36:05;32.30;;;29.20;;
17214;SDS011;8723;51.502;6.918;2022-11-20T08:38:34;31.42;;;28.42;;
17214;SDS011;8723;51.502;6.918;2022-11-20T08:41:02;32.83;;;29.60;;
17214;SDS011;8723;51.502;6.918;2022-11-20T08:43:48;32.22;;;28.98;;
17214;SDS011;8723;51.502;6.918;2022-11-20T08:46:15;31.38;;;28.38;;
17214;SDS011;8723;51.502;6.918;2022-11-20T08:48:44;31.25;;;28.17;;
17214;SDS011;8723;51.502;6.918;2022-11-20T08:51:11;31.30;;;28.25;;
17214;SDS011;8723;51.502;6.918;2022-11-20T08:53:39;29.03;;;26.23;;
17214;SDS011;8723;51.502;6.918;2022-11-20T08:56:09;34.55;;;31.15;;
17214;SDS011;8723;51.502;6.918;2022-11-20T08:58:36;34.13;;;30.73;;
17214;SDS011;8723;51.502;6.918;2022-11-20T09:01:03;33.00;;;29.90;;
17214;SDS011;8723;51.502;6.918;2022-11-20T09:03:30;31.63;;;28.60;;
17214;SDS011;8723;51.502;6.918;2022-11-20T09:05:58;34.65;;;31.25;;
17214;SDS011;8723;51.502;6.918;2022-11-20T09:08:25;33.25;;;29.88;;
17214;SDS011;8723;51.502;6.918;2022-11-20T09:10:54;33.33;;;30.02;;
17214;SDS011;8723;51.502;6.918;2022-11-20T09:13:22;30.35;;;27.45;;
17214;SDS011;8723;51.502;6.918;2022-11-20T09:15:52;29.95;;;26.95;;
17214;SDS011;8723;51.502;6.918;2022-11-20T09:18:19;30.17;;;27.23;;
17214;SDS011;8723;51.502;6.918;2022-11-20T09:20:47;31.77;;;28.60;;
17214;SDS011;8723;51.502;6.918;2022-11-20T09:23:14;30.70;;;27.73;;
17214;SDS011;8723;51.502;6.918;2022-11-20T09:25:42;30.85;;;27.85;;
17214;SDS011;8723;51.502;6.918;2022-11-20T09:28:10;31.30;;;28.40;;
17214;SDS011;8723;51.502;6.918;2022-11-20T09:30:38;30.40;;;27.50;;
17214;SDS011;8723;51.502;6.918;2022-11-20T09:33:05;28.63;;;25.83;;
17214;SDS011;8723;51.502;6.918;2022-11-20T09:35:32;31.98;;;28.77;;
17214;SDS011;8723;51.502;6.918;2022-11-20T09:38:04;33.45;;;30.13;;
17214;SDS011;8723;51.502;6.918;2022-11-20T09:40:31;38.85;;;34.95;;
17214;SDS011;8723;51.502;6.918;2022-11-20T09:42:59;46.65;;;41.95;;
17214;SDS011;8723;51.502;6.918;2022-11-20T09:45:34;46.45;;;41.75;;
17214;SDS011;8723;51.502;6.918;2022-11-20T09:48:08;37.35;;;33.58;;
17214;SDS011;8723;51.502;6.918;2022-11-20T09:50:41;35.22;;;31.83;;
17214;SDS011;8723;51.502;6.918;2022-11-20T09:53:13;32.70;;;29.30;;
17214;SDS011;8723;51.502;6.918;2022-11-20T09:55:43;31.75;;;28.58;;
17214;SDS011;8723;51.502;6.918;2022-11-20T09:58:13;30.27;;;27.23;;
17214;SDS011;8723;51.502;6.918;2022-11-20T10:00:43;27.35;;;24.73;;
17214;SDS011;8723;51.502;6.918;2022-11-20T10:03:12;28.38;;;25.77;;
17214;SDS011;8723;51.502;6.918;2022-11-20T10:05:41;28.27;;;25.48;;
17214;SDS011;8723;51.502;6.918;2022-11-20T10:08:11;30.58;;;27.58;;
17214;SDS011;8723;51.502;6.918;2022-11-20T10:10:42;28.35;;;25.65;;
17214;SDS011;8723;51.502;6.918;2022-11-20T10:13:22;26.98;;;24.38;;
17214;SDS011;8723;51.502;6.918;2022-11-20T10:15:56;23.83;;;21.52;;
17214;SDS011;8723;51.502;6.918;2022-11-20T10:18:32;21.60;;;19.60;;
17214;SDS011;8723;51.502;6.918;2022-11-20T10:21:06;23.85;;;21.50;;
17214;SDS011;8723;51.502;6.918;2022-11-20T10:23:45;20.67;;;18.67;;
17214;SDS011;8723;51.502;6.918;2022-11-20T10:26:16;22.85;;;20.65;;
17214;SDS011;8723;51.502;6.918;2022-11-20T10:28:46;20.17;;;18.17;;
17214;SDS011;8723;51.502;6.918;2022-11-20T10:31:23;22.33;;;20.15;;
17214;SDS011;8723;51.502;6.918;2022-11-20T10:33:52;22.20;;;20.00;;
17214;SDS011;8723;51.502;6.918;2022-11-20T10:36:21;22.23;;;20.13;;
17214;SDS011;8723;51.502;6.918;2022-11-20T10:38:50;22.92;;;20.73;;
17214;SDS011;8723;51.502;6.918;2022-11-20T10:41:20;21.42;;;19.33;;
17214;SDS011;8723;51.502;6.918;2022-11-20T10:43:53;24.98;;;22.55;;
17214;SDS011;8723;51.502;6.918;2022-11-20T10:46:25;23.92;;;21.65;;
17214;SDS011;8723;51.502;6.918;2022-11-20T10:48:54;20.55;;;18.63;;
17214;SDS011;8723;51.502;6.918;2022-11-20T10:51:33;23.33;;;21.13;;
17214;SDS011;8723;51.502;6.918;2022-11-20T10:54:06;20.33;;;18.40;;
17214;SDS011;8723;51.502;6.918;2022-11-20T10:56:36;19.83;;;17.92;;
17214;SDS011;8723;51.502;6.918;2022-11-20T10:59:23;16.23;;;14.70;;
17214;SDS011;8723;51.502;6.918;2022-11-20T11:01:54;19.15;;;17.35;;
17214;SDS011;8723;51.502;6.918;2022-11-20T11:04:30;17.93;;;16.23;;
17214;SDS011;8723;51.502;6.918;2022-11-20T11:07:03;19.35;;;17.45;;
17214;SDS011;8723;51.502;6.918;2022-11-20T11:09:32;15.10;;;13.70;;
17214;SDS011;8723;51.502;6.918;2022-11-20T11:12:00;18.10;;;16.40;;
17214;SDS011;8723;51.502;6.918;2022-11-20T11:14:27;15.40;;;13.93;;
17214;SDS011;8723;51.502;6.918;2022-11-20T11:16:56;16.25;;;14.75;;
17214;SDS011;8723;51.502;6.918;2022-11-20T11:19:24;15.80;;;14.40;;
17214;SDS011;8723;51.502;6.918;2022-11-20T11:21:51;19.08;;;17.27;;
17214;SDS011;8723;51.502;6.918;2022-11-20T11:24:20;18.92;;;17.13;;
17214;SDS011;8723;51.502;6.918;2022-11-20T11:26:52;21.17;;;19.08;;
17214;SDS011;8723;51.502;6.918;2022-11-20T11:29:20;16.25;;;14.65;;
17214;SDS011;8723;51.502;6.918;2022-11-20T11:31:47;17.40;;;15.80;;
17214;SDS011;8723;51.502;6.918;2022-11-20T11:34:16;18.63;;;16.65;;
17214;SDS011;8723;51.502;6.918;2022-11-20T11:36:49;17.85;;;16.15;;
17214;SDS011;8723;51.502;6.918;2022-11-20T11:39:19;18.00;;;16.30;;
17214;SDS011;8723;51.502;6.918;2022-11-20T11:41:46;21.45;;;19.35;;
17214;SDS011;8723;51.502;6.918;2022-11-20T11:44:15;19.37;;;17.47;;
17214;SDS011;8723;51.502;6.918;2022-11-20T11:47:01;20.25;;;18.25;;
17214;SDS011;8723;51.502;6.918;2022-11-20T11:49:30;19.98;;;17.98;;
17214;SDS011;8723;51.502;6.918;2022-11-20T11:51:59;19.75;;;17.85;;
17214;SDS011;8723;51.502;6.918;2022-11-20T11:54:28;18.90;;;17.10;;
17214;SDS011;8723;51.502;6.918;2022-11-20T11:56:58;22.08;;;19.55;;
17214;SDS011;8723;51.502;6.918;2022-11-20T11:59:26;17.42;;;15.73;;
17214;SDS011;8723;51.502;6.918;2022-11-20T12:01:54;24.60;;;20.65;;
17214;SDS011;8723;51.502;6.918;2022-11-20T12:04:26;23.80;;;19.67;;
17214;SDS011;8723;51.502;6.918;2022-11-20T12:07:07;17.20;;;15.10;;
17214;SDS011;8723;51.502;6.918;2022-11-20T12:09:37;17.27;;;15.60;;
17214;SDS011;8723;51.502;6.918;2022-11-20T12:12:07;19.15;;;17.15;;
17214;SDS011;8723;51.502;6.918;2022-11-20T12:14:37;19.08;;;17.02;;
17214;SDS011;8723;51.502;6.918;2022-11-20T12:17:04;19.30;;;17.40;;
17214;SDS011;8723;51.502;6.918;2022-11-20T12:19:33;18.38;;;16.58;;
17214;SDS011;8723;51.502;6.918;2022-11-20T12:22:02;19.13;;;17.23;;
17214;SDS011;8723;51.502;6.918;2022-11-20T12:24:39;19.95;;;17.98;;
17214;SDS011;8723;51.502;6.918;2022-11-20T12:27:13;16.98;;;15.27;;
17214;SDS011;8723;51.502;6.918;2022-11-20T12:29:46;20.83;;;18.70;;
17214;SDS011;8723;51.502;6.918;2022-11-20T12:35:03;19.42;;;17.42;;
17214;SDS011;8723;51.502;6.918;2022-11-20T12:37:35;19.45;;;17.38;;
17214;SDS011;8723;51.502;6.918;2022-11-20T12:40:16;20.08;;;18.10;;
17214;SDS011;8723;51.502;6.918;2022-11-20T12:42:47;18.23;;;16.43;;
17214;SDS011;8723;51.502;6.918;2022-11-20T12:48:23;17.48;;;15.77;;
17214;SDS011;8723;51.502;6.918;2022-11-20T12:50:54;18.33;;;16.42;;
17214;SDS011;8723;51.502;6.918;2022-11-20T12:53:27;17.40;;;15.60;;
17214;SDS011;8723;51.502;6.918;2022-11-20T12:55:58;18.15;;;16.40;;
17214;SDS011;8723;51.502;6.918;2022-11-20T12:58:31;19.27;;;17.38;;
17214;SDS011;8723;51.502;6.918;2022-11-20T13:01:03;18.92;;;17.02;;
17214;SDS011;8723;51.502;6.918;2022-11-20T13:03:36;17.27;;;15.48;;
17214;SDS011;8723;51.502;6.918;2022-11-20T13:06:10;20.05;;;18.05;;
17214;SDS011;8723;51.502;6.918;2022-11-20T13:08:39;18.63;;;16.83;;
17214;SDS011;8723;51.502;6.918;2022-11-20T13:11:09;18.75;;;16.83;;
17214;SDS011;8723;51.502;6.918;2022-11-20T13:13:41;16.60;;;14.90;;
17214;SDS011;8723;51.502;6.918;2022-11-20T13:16:10;19.17;;;17.17;;
17214;SDS011;8723;51.502;6.918;2022-11-20T13:18:41;19.60;;;17.60;;
17214;SDS011;8723;51.502;6.918;2022-11-20T13:21:14;18.77;;;16.98;;
17214;SDS011;8723;51.502;6.918;2022-11-20T13:23:41;19.52;;;17.52;;
17214;SDS011;8723;51.502;6.918;2022-11-20T13:26:16;22.30;;;20.00;;
17214;SDS011;8723;51.502;6.918;2022-11-20T13:28:43;21.27;;;19.17;;
17214;SDS011;8723;51.502;6.918;2022-11-20T13:31:23;19.95;;;17.95;;
17214;SDS011;8723;51.502;6.918;2022-11-20T13:33:52;19.88;;;17.92;;
17214;SDS011;8723;51.502;6.918;2022-11-20T13:36:22;19.90;;;17.93;;
17214;SDS011;8723;51.502;6.918;2022-11-20T13:38:51;21.02;;;18.85;;
17214;SDS011;8723;51.502;6.918;2022-11-20T13:41:24;18.98;;;17.08;;
17214;SDS011;8723;51.502;6.918;2022-11-20T13:43:57;20.13;;;18.08;;
17214;SDS011;8723;51.502;6.918;2022-11-20T13:46:34;20.05;;;18.05;;
17214;SDS011;8723;51.502;6.918;2022-11-20T13:49:05;19.35;;;17.45;;
17214;SDS011;8723;51.502;6.918;2022-11-20T13:51:35;19.37;;;17.47;;
17214;SDS011;8723;51.502;6.918;2022-11-20T13:54:10;21.10;;;18.95;;
17214;SDS011;8723;51.502;6.918;2022-11-20T13:56:50;22.35;;;19.95;;
17214;SDS011;8723;51.502;6.918;2022-11-20T13:59:28;23.27;;;20.87;;
17214;SDS011;8723;51.502;6.918;2022-11-20T14:01:57;23.43;;;20.93;;
17214;SDS011;8723;51.502;6.918;2022-11-20T14:04:26;24.13;;;21.63;;
17214;SDS011;8723;51.502;6.918;2022-11-20T14:06:53;22.92;;;20.60;;
17214;SDS011;8723;51.502;6.918;2022-11-20T14:09:27;21.43;;;19.27;;
17214;SDS011;8723;51.502;6.918;2022-11-20T14:11:56;22.23;;;19.92;;
17214;SDS011;8723;51.502;6.918;2022-11-20T14:14:23;25.73;;;23.13;;
17214;SDS011;8723;51.502;6.918;2022-11-20T14:16:53;22.83;;;20.50;;
17214;SDS011;8723;51.502;6.918;2022-11-20T14:19:31;26.25;;;23.45;;
17214;SDS011;8723;51.502;6.918;2022-11-20T14:22:09;25.90;;;23.30;;
17214;SDS011;8723;51.502;6.918;2022-11-20T14:24:36;26.00;;;23.13;;
17214;SDS011;8723;51.502;6.918;2022-11-20T14:27:09;27.85;;;23.77;;
17214;SDS011;8723;51.502;6.918;2022-11-20T14:29:37;24.88;;;21.75;;
17214;SDS011;8723;51.502;6.918;2022-11-20T14:32:05;26.33;;;23.52;;
17214;SDS011;8723;51.502;6.918;2022-11-20T14:34:33;29.95;;;25.60;;
17214;SDS011;8723;51.502;6.918;2022-11-20T14:37:04;35.72;;;29.63;;
17214;SDS011;8723;51.502;6.918;2022-11-20T14:39:32;38.92;;;32.42;;
17214;SDS011;8723;51.502;6.918;2022-11-20T14:42:00;43.22;;;36.25;;
17214;SDS011;8723;51.502;6.918;2022-11-20T14:44:29;42.45;;;36.17;;
17214;SDS011;8723;51.502;6.918;2022-11-20T14:46:57;37.72;;;32.88;;
17214;SDS011;8723;51.502;6.918;2022-11-20T14:49:25;35.60;;;31.25;;